LTBR/YEI METAR and TAF weather

Enter ICAO airport designator
Station Type Date Time Source
LTBR METAR 2019/06/19 07:20 UTC NOAA

LTBR 190720Z VRB02KT 9999 SCT035 BKN100 22/18 Q1012 NOSIG


Station Type Date Time Source
LTBR Decoded METAR 2019/06/19 07:20 UTC NOAA

Bursa / Yenisehir, Mil-Civ, Turkey (LTBR) 40-15-19N 029-33-45E
Jun 19, 2019 - 03:20 AM EDT / 2019.06.19 0720 UTC
Wind: Variable at 2 MPH (2 KT):0
Visibility: greater than 7 mile(s):0
Sky conditions: mostly cloudy
Temperature: 71 F (22 C)
Dew Point: 64 F (18 C)
Relative Humidity: 78%
Pressure (altimeter): 29.88 in. Hg (1012 hPa)
ob: LTBR 190720Z VRB02KT 9999 SCT035 BKN100 22/18 Q1012 NOSIG
cycle: 7

Station Type Date Time Source
LTBR TAF 2019/06/19 06:03 UTC NOAA

TAF LTBR 190440Z 1906/2006 VRB02KT 9999 SCT035
BECMG 1908/1911 34012KT PROB30
TEMPO 1911/1915 34015G30KT -TSRA FEW022CB BKN025 PROB40
TEMPO 1915/1918 -TSRA SCT025CB BKN030
BECMG 1916/1919 VRB02KT

Example: see airport list